createdAt,value
2023-01-30T00:00:32.316Z,-1.60
2023-01-30T00:03:04.080Z,-1.50
2023-01-30T00:05:35.728Z,-1.50
2023-01-30T00:08:07.694Z,-1.50
2023-01-30T00:10:39.547Z,-1.60
2023-01-30T00:13:12.227Z,-1.70
2023-01-30T00:15:44.530Z,-1.80
2023-01-30T00:18:16.216Z,-1.90
2023-01-30T00:20:47.988Z,-1.80
2023-01-30T00:23:19.765Z,-1.70
2023-01-30T00:25:51.860Z,-1.70
2023-01-30T00:28:24.671Z,-1.70
2023-01-30T00:30:57.168Z,-1.70
2023-01-30T00:33:29.504Z,-1.70
2023-01-30T00:36:01.843Z,-1.70
2023-01-30T00:38:33.808Z,-1.70
2023-01-30T00:41:05.627Z,-1.70
2023-01-30T00:44:12.784Z,-1.80
2023-01-30T00:47:03.142Z,-1.80
2023-01-30T00:49:35.990Z,-1.70
2023-01-30T00:52:07.823Z,-1.70
2023-01-30T00:54:39.514Z,-1.70
2023-01-30T00:57:11.373Z,-1.70
2023-01-30T00:59:43.094Z,-1.70
2023-01-30T01:02:14.806Z,-1.80
2023-01-30T01:04:46.527Z,-1.70
2023-01-30T01:07:18.617Z,-1.70
2023-01-30T01:09:51.190Z,-1.70
2023-01-30T01:12:23.113Z,-1.70
2023-01-30T01:14:54.884Z,-1.70
2023-01-30T01:17:26.827Z,-1.70
2023-01-30T01:19:58.598Z,-1.80
2023-01-30T01:22:30.424Z,-1.90
2023-01-30T01:25:02.798Z,-1.90
2023-01-30T01:27:34.513Z,-2.10
2023-01-30T01:30:07.052Z,-2.10
2023-01-30T01:32:38.807Z,-2.20
2023-01-30T01:35:10.741Z,-2.20
2023-01-30T01:37:42.475Z,-2.20
2023-01-30T01:40:38.604Z,-2.30
2023-01-30T01:43:22.265Z,-2.40
2023-01-30T01:46:00.731Z,-2.40
2023-01-30T01:48:41.663Z,-2.40
2023-01-30T01:51:18.795Z,-2.40
2023-01-30T01:53:56.620Z,-2.40
2023-01-30T01:56:29.298Z,-2.40
2023-01-30T01:59:11.798Z,-2.30
2023-01-30T02:01:43.536Z,-2.30
2023-01-30T02:04:35.527Z,-2.30
2023-01-30T02:07:08.627Z,-2.30
2023-01-30T02:09:40.471Z,-2.30
2023-01-30T02:12:14.893Z,-2.20
2023-01-30T02:14:48.964Z,-2.20
2023-01-30T02:17:20.865Z,-2.20
2023-01-30T02:20:16.375Z,-2.20
2023-01-30T02:22:57.989Z,-2.20
2023-01-30T02:25:38.746Z,-2.30
2023-01-30T02:28:19.015Z,-2.30
2023-01-30T02:31:08.108Z,-2.30
2023-01-30T02:33:48.800Z,-2.40
2023-01-30T02:36:42.547Z,-2.40
2023-01-30T02:39:22.836Z,-2.30
2023-01-30T02:42:42.121Z,-2.30
2023-01-30T02:45:31.632Z,-2.20
2023-01-30T02:48:06.532Z,-2.30
2023-01-30T02:50:44.450Z,-2.30
2023-01-30T02:53:16.228Z,-2.40
2023-01-30T02:55:48.041Z,-2.30
2023-01-30T02:58:23.160Z,-2.20
2023-01-30T03:01:11.403Z,-2.20
2023-01-30T03:03:54.762Z,-2.30
2023-01-30T03:06:42.596Z,-2.40
2023-01-30T03:09:53.941Z,-2.40
2023-01-30T03:13:06.860Z,-2.40
2023-01-30T03:16:05.253Z,-2.30
2023-01-30T03:18:37.280Z,-2.20
2023-01-30T03:21:09.736Z,-2.20
2023-01-30T03:23:41.740Z,-2.20
2023-01-30T03:26:18.654Z,-2.20
2023-01-30T03:28:51.773Z,-2.20
2023-01-30T03:31:23.700Z,-2.20
2023-01-30T03:33:55.443Z,-2.20
2023-01-30T03:36:27.358Z,-2.30
2023-01-30T03:38:59.314Z,-2.30
2023-01-30T03:41:31.292Z,-2.30
2023-01-30T03:44:03.132Z,-2.20
2023-01-30T03:46:34.869Z,-2.20
2023-01-30T03:49:06.609Z,-2.30
2023-01-30T03:51:38.474Z,-2.20
2023-01-30T03:54:10.142Z,-2.10
2023-01-30T03:56:41.987Z,-1.90
2023-01-30T03:59:13.727Z,-1.90
2023-01-30T04:01:45.435Z,-1.90
2023-01-30T04:04:17.192Z,-1.80
2023-01-30T04:06:49.027Z,-1.80
2023-01-30T04:09:20.858Z,-1.70
2023-01-30T04:11:52.793Z,-1.60
2023-01-30T04:14:24.507Z,-1.60
2023-01-30T04:16:56.302Z,-1.60
2023-01-30T04:19:28.137Z,-1.50
2023-01-30T04:21:59.808Z,-1.50
2023-01-30T04:24:31.487Z,-1.60
2023-01-30T04:27:03.285Z,-1.60
2023-01-30T04:29:35.251Z,-1.60
2023-01-30T04:32:06.903Z,-1.60
2023-01-30T04:34:38.571Z,-1.50
2023-01-30T04:37:10.323Z,-1.50
2023-01-30T04:39:42.147Z,-1.60
2023-01-30T04:42:13.900Z,-1.60
2023-01-30T04:44:45.751Z,-1.50
2023-01-30T04:47:17.710Z,-1.50
2023-01-30T04:49:49.653Z,-1.50
2023-01-30T04:52:21.435Z,-1.40
2023-01-30T04:54:53.297Z,-1.30
2023-01-30T04:57:24.965Z,-1.20
2023-01-30T04:59:56.779Z,-1.20
2023-01-30T05:02:28.458Z,-1.10
2023-01-30T05:05:00.248Z,-1.10
2023-01-30T05:07:32.037Z,-1.10
2023-01-30T05:10:04.058Z,-1.10
2023-01-30T05:12:35.779Z,-1.10
2023-01-30T05:15:08.079Z,-1.00
2023-01-30T05:17:41.960Z,-1.00
2023-01-30T05:20:14.877Z,-1.00
2023-01-30T05:22:46.560Z,-1.00
2023-01-30T05:25:18.653Z,-0.90
2023-01-30T05:27:50.610Z,-0.90
2023-01-30T05:30:22.501Z,-0.90
2023-01-30T05:32:54.207Z,-0.90
2023-01-30T05:35:25.862Z,-0.90
2023-01-30T05:37:59.405Z,-0.90
2023-01-30T05:40:31.223Z,-0.80
2023-01-30T05:43:03.049Z,-0.80
2023-01-30T05:45:34.734Z,-0.80
2023-01-30T05:48:06.720Z,-0.80
2023-01-30T05:50:38.463Z,-0.80
2023-01-30T05:53:10.286Z,-0.80
2023-01-30T05:55:43.742Z,-0.80
2023-01-30T05:58:15.500Z,-0.80
2023-01-30T06:00:47.221Z,-0.80
2023-01-30T06:03:19.291Z,-0.80
2023-01-30T06:05:50.990Z,-0.80
2023-01-30T06:08:23.271Z,-0.80
2023-01-30T06:10:55.004Z,-0.80
2023-01-30T06:13:26.719Z,-0.80
2023-01-30T06:15:58.523Z,-0.90
2023-01-30T06:18:30.347Z,-0.90
2023-01-30T06:21:02.117Z,-1.00
2023-01-30T06:23:34.637Z,-1.00
2023-01-30T06:26:09.156Z,-1.00
2023-01-30T06:28:41.123Z,-1.00
2023-01-30T06:31:12.946Z,-1.00
2023-01-30T06:33:44.644Z,-1.00
2023-01-30T06:36:16.381Z,-1.00
2023-01-30T06:38:48.736Z,-1.00
2023-01-30T06:41:20.577Z,-0.90
2023-01-30T06:43:52.368Z,-0.90
2023-01-30T06:46:24.136Z,-0.90
2023-01-30T06:48:55.934Z,-0.90
2023-01-30T06:51:27.704Z,-0.90
2023-01-30T06:53:59.647Z,-0.90
2023-01-30T06:56:31.437Z,-0.90
2023-01-30T06:59:03.283Z,-0.90
2023-01-30T07:01:35.110Z,-0.90
2023-01-30T07:04:06.913Z,-1.00
2023-01-30T07:06:40.076Z,-1.00
2023-01-30T07:09:11.921Z,-1.00
2023-01-30T07:11:43.756Z,-1.00
2023-01-30T07:14:15.457Z,-1.00
2023-01-30T07:16:47.244Z,-1.00
2023-01-30T07:19:18.941Z,-0.90
2023-01-30T07:21:50.682Z,-0.90
2023-01-30T07:24:22.362Z,-0.80
2023-01-30T07:26:54.192Z,-0.80
2023-01-30T07:29:25.880Z,-0.70
2023-01-30T07:31:57.685Z,-0.60
2023-01-30T07:34:29.982Z,-0.60
2023-01-30T07:37:01.667Z,-0.50
2023-01-30T07:39:33.476Z,-0.50
2023-01-30T07:42:05.841Z,-0.50
2023-01-30T07:44:37.601Z,-0.40
2023-01-30T07:47:09.418Z,-0.30
2023-01-30T07:49:41.203Z,-0.30
2023-01-30T07:52:12.990Z,-0.30
2023-01-30T07:54:44.666Z,-0.40
2023-01-30T07:57:16.513Z,-0.40
2023-01-30T07:59:48.248Z,-0.40
2023-01-30T08:02:19.978Z,-0.50
2023-01-30T08:04:51.858Z,-0.50
2023-01-30T08:07:23.627Z,-0.40
2023-01-30T08:09:55.433Z,-0.40
2023-01-30T08:12:27.688Z,-0.30
2023-01-30T08:14:59.591Z,-0.30
2023-01-30T08:17:31.243Z,-0.20
2023-01-30T08:20:04.679Z,-0.10
2023-01-30T08:22:36.462Z,-0.10
2023-01-30T08:25:08.359Z,0.00
2023-01-30T08:27:40.173Z,0.00
2023-01-30T08:30:13.393Z,0.00
2023-01-30T08:32:45.115Z,0.00
2023-01-30T08:35:16.995Z,0.00
2023-01-30T08:37:48.840Z,0.10
2023-01-30T08:40:20.959Z,0.10
2023-01-30T08:42:52.864Z,0.10
2023-01-30T08:45:24.634Z,0.20
2023-01-30T08:48:00.914Z,0.20
2023-01-30T08:50:33.603Z,0.20
2023-01-30T08:53:10.005Z,0.20
2023-01-30T08:55:43.599Z,0.20
2023-01-30T08:58:15.356Z,0.20
2023-01-30T09:00:48.733Z,0.20
2023-01-30T09:03:20.535Z,0.20
2023-01-30T09:05:56.182Z,0.30
2023-01-30T09:08:27.935Z,0.30
2023-01-30T09:11:01.587Z,0.30
2023-01-30T09:13:35.007Z,0.40
2023-01-30T09:16:07.116Z,0.50
2023-01-30T09:18:44.097Z,0.60
2023-01-30T09:21:15.975Z,0.70
2023-01-30T09:23:47.805Z,0.90
2023-01-30T09:26:19.511Z,1.10
2023-01-30T09:28:51.281Z,1.20
2023-01-30T09:31:23.188Z,1.40
2023-01-30T09:33:54.925Z,1.80
2023-01-30T09:36:26.677Z,2.40
2023-01-30T09:38:58.343Z,2.70
2023-01-30T09:41:45.004Z,2.70
2023-01-30T09:44:40.966Z,2.60
2023-01-30T09:47:16.839Z,2.40
2023-01-30T09:50:12.894Z,2.30
2023-01-30T09:53:00.433Z,2.30
2023-01-30T09:55:37.332Z,2.20
2023-01-30T09:58:19.242Z,2.10
2023-01-30T10:00:56.879Z,2.00
2023-01-30T10:03:39.717Z,2.00
2023-01-30T10:06:14.472Z,2.10
2023-01-30T10:09:04.749Z,2.30
2023-01-30T10:11:59.717Z,2.60
2023-01-30T10:14:59.125Z,2.60
2023-01-30T10:18:08.166Z,2.50
2023-01-30T10:20:59.159Z,2.50
2023-01-30T10:23:52.780Z,2.60
2023-01-30T10:26:27.052Z,2.70
2023-01-30T10:29:16.044Z,2.80
2023-01-30T10:32:08.055Z,2.90
2023-01-30T10:34:43.007Z,2.90
2023-01-30T10:37:35.653Z,3.00
2023-01-30T10:40:28.911Z,3.00
2023-01-30T10:43:18.588Z,3.00
2023-01-30T10:46:10.595Z,3.10
2023-01-30T10:48:55.299Z,3.10
2023-01-30T10:51:38.471Z,3.00
2023-01-30T10:54:20.294Z,3.00
2023-01-30T10:57:21.452Z,2.90
2023-01-30T11:00:14.886Z,2.90
2023-01-30T11:03:09.726Z,2.90
2023-01-30T11:06:07.626Z,2.80
2023-01-30T11:08:39.356Z,2.80
2023-01-30T11:11:30.007Z,2.70
2023-01-30T11:14:11.011Z,2.60
2023-01-30T11:16:48.403Z,2.70
2023-01-30T11:19:25.769Z,2.70
2023-01-30T11:22:04.064Z,2.70
2023-01-30T11:24:40.345Z,2.70
2023-01-30T11:27:27.614Z,2.70
2023-01-30T11:30:20.458Z,2.60
2023-01-30T11:33:15.019Z,2.50
2023-01-30T11:36:27.001Z,2.50
2023-01-30T11:39:23.072Z,2.50
2023-01-30T11:41:57.600Z,2.50
2023-01-30T11:44:35.134Z,2.50
2023-01-30T11:47:18.083Z,2.60
2023-01-30T11:49:59.098Z,2.50
2023-01-30T11:52:46.797Z,2.50
2023-01-30T11:55:21.039Z,2.60
2023-01-30T11:57:58.589Z,2.60
2023-01-30T12:00:49.552Z,2.60
2023-01-30T12:03:25.654Z,2.60
2023-01-30T12:05:58.853Z,2.50
2023-01-30T12:08:42.187Z,2.50
2023-01-30T12:11:28.010Z,2.40
2023-01-30T12:14:13.580Z,2.30
2023-01-30T12:16:58.590Z,2.20
2023-01-30T12:19:45.402Z,2.20
2023-01-30T12:22:34.514Z,2.20
2023-01-30T12:25:29.322Z,2.20
2023-01-30T12:28:25.892Z,2.10
2023-01-30T12:31:10.753Z,2.10
2023-01-30T12:33:42.449Z,2.10
2023-01-30T12:36:40.882Z,2.10
2023-01-30T12:39:18.604Z,2.00
2023-01-30T12:41:53.118Z,2.10
2023-01-30T12:45:02.784Z,2.10
2023-01-30T12:47:50.511Z,2.10
2023-01-30T12:50:44.884Z,2.20
2023-01-30T12:53:38.487Z,2.10
2023-01-30T12:56:34.237Z,2.10
2023-01-30T12:59:25.451Z,2.10
2023-01-30T13:02:27.443Z,2.10
2023-01-30T13:05:23.901Z,2.10
2023-01-30T13:08:21.408Z,2.10
2023-01-30T13:11:08.628Z,2.10
2023-01-30T13:14:04.969Z,2.00
2023-01-30T13:17:06.838Z,1.90
2023-01-30T13:19:51.375Z,2.00
2023-01-30T13:22:40.823Z,2.00
2023-01-30T13:25:25.719Z,2.00
2023-01-30T13:28:06.447Z,2.00
2023-01-30T13:30:40.063Z,1.90
2023-01-30T13:33:15.995Z,1.80
2023-01-30T13:35:54.396Z,1.80
2023-01-30T13:38:28.831Z,1.70
2023-01-30T13:41:02.395Z,1.70
2023-01-30T13:43:41.814Z,1.60
2023-01-30T13:46:20.395Z,1.60
2023-01-30T13:49:20.247Z,1.60
2023-01-30T13:52:07.289Z,1.70
2023-01-30T13:55:21.439Z,1.60
2023-01-30T13:58:01.026Z,1.60
2023-01-30T14:00:34.929Z,1.60
2023-01-30T14:03:06.669Z,1.60
2023-01-30T14:06:00.808Z,1.70
2023-01-30T14:08:53.417Z,1.70
2023-01-30T14:11:34.245Z,1.70
2023-01-30T14:14:25.231Z,1.70
2023-01-30T14:17:08.514Z,1.70
2023-01-30T14:19:46.565Z,1.70
2023-01-30T14:22:24.903Z,1.70
2023-01-30T14:25:30.560Z,1.70
2023-01-30T14:28:05.186Z,1.70
2023-01-30T14:30:54.051Z,1.60
2023-01-30T14:33:34.467Z,1.60
2023-01-30T14:36:06.268Z,1.60
2023-01-30T14:38:40.334Z,1.60
2023-01-30T14:41:26.125Z,1.60
2023-01-30T14:43:57.912Z,1.60
2023-01-30T14:46:29.571Z,1.50
2023-01-30T14:49:26.997Z,1.60
2023-01-30T14:51:59.221Z,1.60
2023-01-30T14:54:41.834Z,1.60
2023-01-30T14:57:24.244Z,1.60
2023-01-30T15:00:14.863Z,1.60
2023-01-30T15:02:52.433Z,1.70
2023-01-30T15:05:45.316Z,1.70
2023-01-30T15:08:24.755Z,1.70
2023-01-30T15:10:56.450Z,1.70
2023-01-30T15:13:49.285Z,1.70
2023-01-30T15:17:08.192Z,1.80
2023-01-30T15:19:49.304Z,1.80
2023-01-30T15:22:55.094Z,1.80
2023-01-30T15:25:45.259Z,1.80
2023-01-30T15:28:40.261Z,1.90
2023-01-30T15:31:16.235Z,1.80
2023-01-30T15:33:53.040Z,1.90
2023-01-30T15:36:31.903Z,1.90
2023-01-30T15:39:05.453Z,2.00
2023-01-30T15:41:41.787Z,2.00
2023-01-30T15:44:14.365Z,2.00
2023-01-30T15:46:55.215Z,2.10
2023-01-30T15:49:46.410Z,2.10
2023-01-30T15:52:20.424Z,2.10
2023-01-30T15:54:56.252Z,2.10
2023-01-30T15:57:35.985Z,2.10
2023-01-30T16:00:11.395Z,2.10
2023-01-30T16:02:44.231Z,2.10
2023-01-30T16:05:24.196Z,2.10
2023-01-30T16:07:58.971Z,2.10
2023-01-30T16:10:31.104Z,2.10
2023-01-30T16:13:04.059Z,2.10
2023-01-30T16:15:42.360Z,2.00
2023-01-30T16:18:24.531Z,2.00
2023-01-30T16:21:02.767Z,2.00
2023-01-30T16:23:42.736Z,1.90
2023-01-30T16:26:17.966Z,2.00
2023-01-30T16:28:51.691Z,1.90
2023-01-30T16:31:26.084Z,2.00
2023-01-30T16:33:58.627Z,2.00
2023-01-30T16:36:37.771Z,2.00
2023-01-30T16:39:30.234Z,2.00
2023-01-30T16:42:23.868Z,2.00
2023-01-30T16:45:21.207Z,2.00
2023-01-30T16:47:53.137Z,2.00
2023-01-30T16:50:26.743Z,2.00
2023-01-30T16:52:58.554Z,2.00
2023-01-30T16:55:30.286Z,2.00
2023-01-30T16:58:04.102Z,2.00
2023-01-30T17:00:38.722Z,2.00
2023-01-30T17:03:24.358Z,2.00
2023-01-30T17:05:56.441Z,1.90
2023-01-30T17:08:31.188Z,2.00
2023-01-30T17:11:03.537Z,2.00
2023-01-30T17:13:42.722Z,2.00
2023-01-30T17:16:23.082Z,2.00
2023-01-30T17:18:59.593Z,2.00
2023-01-30T17:21:42.213Z,2.00
2023-01-30T17:24:16.996Z,2.00
2023-01-30T17:26:52.307Z,2.00
2023-01-30T17:29:41.268Z,1.90
2023-01-30T17:32:15.933Z,1.90
2023-01-30T17:34:47.874Z,1.80
2023-01-30T17:37:23.934Z,1.80
2023-01-30T17:39:55.741Z,1.80
2023-01-30T17:42:27.444Z,1.80
2023-01-30T17:44:59.894Z,1.80
2023-01-30T17:47:31.692Z,1.80
2023-01-30T17:50:04.093Z,1.80
2023-01-30T17:52:35.765Z,1.80
2023-01-30T17:55:09.761Z,1.90
2023-01-30T17:57:44.303Z,2.00
2023-01-30T18:00:19.323Z,2.00
2023-01-30T18:02:51.503Z,2.00
2023-01-30T18:05:23.398Z,2.10
2023-01-30T18:07:55.177Z,2.10
2023-01-30T18:10:27.257Z,2.20
2023-01-30T18:12:59.140Z,2.30
2023-01-30T18:15:30.971Z,2.30
2023-01-30T18:18:02.817Z,2.30
2023-01-30T18:20:34.533Z,2.30
2023-01-30T18:23:06.339Z,2.30
2023-01-30T18:25:38.020Z,2.40
2023-01-30T18:28:12.907Z,2.40
2023-01-30T18:30:44.871Z,2.40
2023-01-30T18:33:16.732Z,2.30
2023-01-30T18:35:48.479Z,2.20
2023-01-30T18:38:20.326Z,2.20
2023-01-30T18:40:52.556Z,2.20
2023-01-30T18:43:25.435Z,2.20
2023-01-30T18:46:05.250Z,2.10
2023-01-30T18:48:38.003Z,2.10
2023-01-30T18:51:14.968Z,2.00
2023-01-30T18:53:48.366Z,1.90
2023-01-30T18:56:25.679Z,1.80
2023-01-30T18:58:59.502Z,1.90
2023-01-30T19:01:42.486Z,1.90
2023-01-30T19:04:14.695Z,1.70
2023-01-30T19:06:46.503Z,1.60
2023-01-30T19:09:19.051Z,1.60
2023-01-30T19:12:09.528Z,1.50
2023-01-30T19:14:41.335Z,1.40
2023-01-30T19:17:14.273Z,1.50
2023-01-30T19:19:46.508Z,1.50
2023-01-30T19:22:18.309Z,1.40
2023-01-30T19:24:50.057Z,1.40
2023-01-30T19:27:22.230Z,1.50
2023-01-30T19:29:54.240Z,1.50
2023-01-30T19:32:26.494Z,1.50
2023-01-30T19:34:58.256Z,1.60
2023-01-30T19:37:29.984Z,1.70
2023-01-30T19:40:03.229Z,1.90
2023-01-30T19:42:37.462Z,2.00
2023-01-30T19:45:10.811Z,2.10
2023-01-30T19:47:42.581Z,2.20
2023-01-30T19:50:14.563Z,2.10
2023-01-30T19:52:47.263Z,2.10
2023-01-30T19:55:20.531Z,2.10
2023-01-30T19:57:52.458Z,1.90
2023-01-30T20:00:24.229Z,1.80
2023-01-30T20:02:57.472Z,1.70
2023-01-30T20:05:29.335Z,1.60
2023-01-30T20:08:01.195Z,1.70
2023-01-30T20:10:33.070Z,1.90
2023-01-30T20:13:04.881Z,2.00
2023-01-30T20:15:39.437Z,2.10
2023-01-30T20:18:11.217Z,2.10
2023-01-30T20:20:42.936Z,2.10
2023-01-30T20:23:14.688Z,2.10
2023-01-30T20:25:48.632Z,2.10
2023-01-30T20:28:20.351Z,2.10
2023-01-30T20:30:52.147Z,2.10
2023-01-30T20:33:24.682Z,2.20
2023-01-30T20:36:01.819Z,2.20
2023-01-30T20:38:34.942Z,2.20
2023-01-30T20:41:09.788Z,2.20
2023-01-30T20:43:44.990Z,2.20
2023-01-30T20:46:19.764Z,2.20
2023-01-30T20:48:54.358Z,2.30
2023-01-30T20:51:37.398Z,2.30
2023-01-30T20:54:10.809Z,2.30
2023-01-30T20:56:45.041Z,2.30
2023-01-30T20:59:24.192Z,2.40
2023-01-30T21:01:56.019Z,2.40
2023-01-30T21:04:27.888Z,2.40
2023-01-30T21:07:00.475Z,2.40
2023-01-30T21:09:32.255Z,2.40
2023-01-30T21:12:04.457Z,2.40
2023-01-30T21:14:36.138Z,2.50
2023-01-30T21:17:07.970Z,2.40
2023-01-30T21:19:41.951Z,2.40
2023-01-30T21:22:15.319Z,2.40
2023-01-30T21:24:47.108Z,2.40
2023-01-30T21:27:20.293Z,2.40
2023-01-30T21:29:52.041Z,2.40
2023-01-30T21:32:23.818Z,2.30
2023-01-30T21:34:55.508Z,2.30
2023-01-30T21:37:46.108Z,2.20
2023-01-30T21:40:36.779Z,2.20
2023-01-30T21:43:15.161Z,2.20
2023-01-30T21:45:46.949Z,2.10
2023-01-30T21:48:18.664Z,2.00
2023-01-30T21:50:50.344Z,2.00
2023-01-30T21:53:22.113Z,2.10
2023-01-30T21:55:53.929Z,2.10
2023-01-30T21:58:25.976Z,2.20
2023-01-30T22:01:07.571Z,2.20
2023-01-30T22:03:40.025Z,2.20
2023-01-30T22:06:12.864Z,2.30
2023-01-30T22:08:44.624Z,2.40
2023-01-30T22:11:20.857Z,2.40
2023-01-30T22:13:53.591Z,2.40
2023-01-30T22:16:27.522Z,2.40
2023-01-30T22:19:04.635Z,2.40
2023-01-30T22:21:38.754Z,2.50
2023-01-30T22:24:11.683Z,2.40
2023-01-30T22:26:43.612Z,2.40
2023-01-30T22:29:17.976Z,2.50
2023-01-30T22:31:49.907Z,2.50
2023-01-30T22:34:21.978Z,2.50
2023-01-30T22:36:54.350Z,2.50
2023-01-30T22:39:26.297Z,2.50
2023-01-30T22:41:57.996Z,2.50
2023-01-30T22:44:29.735Z,2.60
2023-01-30T22:47:01.684Z,2.60
2023-01-30T22:49:33.573Z,2.60
2023-01-30T22:52:05.334Z,2.50
2023-01-30T22:54:37.243Z,2.50
2023-01-30T22:57:09.950Z,2.40
2023-01-30T22:59:41.734Z,2.50
2023-01-30T23:02:13.468Z,2.50
2023-01-30T23:04:45.168Z,2.50
2023-01-30T23:07:17.808Z,2.50
2023-01-30T23:09:49.524Z,2.40
2023-01-30T23:12:40.291Z,2.50
2023-01-30T23:15:12.200Z,2.50
2023-01-30T23:18:02.467Z,2.50
2023-01-30T23:20:34.256Z,2.50
2023-01-30T23:23:07.018Z,2.40
2023-01-30T23:25:42.619Z,2.40
2023-01-30T23:28:14.819Z,2.40
2023-01-30T23:30:46.499Z,2.50
2023-01-30T23:33:18.272Z,2.40
2023-01-30T23:35:49.946Z,2.40
2023-01-30T23:38:22.728Z,2.40
2023-01-30T23:41:03.626Z,2.40
2023-01-30T23:43:36.364Z,2.40
2023-01-30T23:46:28.509Z,2.40
2023-01-30T23:49:06.617Z,2.40
2023-01-30T23:51:40.327Z,2.30
2023-01-30T23:54:13.741Z,2.40
2023-01-30T23:56:45.622Z,2.30
2023-01-30T23:59:17.334Z,2.30
